Time;durP1;ratioP1;P1;durP2;ratioP2;P2;SDS_P1;SDS_P2;PMS_P1;PMS_P2;Temp;Humidity;BMP_temperature;BMP_pressure;BME280_temperature;BME280_humidity;BME280_pressure;Samples;Min_cycle;Max_cycle;Signal;HPM_P1;HPM_P2
2021/12/12 00:02:33;;;;;;;113.07;53.40;;;;;;;;;;5044733;28;20056;-85
2021/12/12 00:05:08;;;;;;;103.95;51.05;;;;;;;;;;5030408;28;20104;-85
2021/12/12 00:07:37;;;;;;;98.95;50.75;;;;;;;;;;5045602;28;20795;-84
2021/12/12 00:10:31;;;;;;;104.50;52.35;;;;;;;;;;5028461;28;20111;-85
2021/12/12 00:16:41;;;;;;;102.53;51.35;;;;;;;;;;5060601;28;20170;-84
2021/12/12 00:20:16;;;;;;;95.57;48.65;;;;;;;;;;5093534;28;20043;-85
2021/12/12 00:26:57;;;;;;;93.15;49.35;;;;;;;;;;5048018;28;20043;-84
2021/12/12 00:29:49;;;;;;;97.82;49.45;;;;;;;;;;5061986;28;20044;-84
2021/12/12 00:36:21;;;;;;;98.47;49.00;;;;;;;;;;5076211;28;20048;-84
2021/12/12 00:39:12;;;;;;;99.35;48.63;;;;;;;;;;5054803;28;20039;-83
2021/12/12 00:49:05;;;;;;;95.30;48.03;;;;;;;;;;4979928;28;20049;-84
2021/12/12 01:12:47;;;;;;;92.35;47.50;;;;;;;;;;5475390;22;20129;-83
2021/12/12 01:15:13;;;;;;;;;;;;;;;;;;5069552;28;20407;-83
2021/12/12 01:17:42;;;;;;;89.30;44.83;;;;;;;;;;5074497;28;19920;-83
2021/12/12 01:20:33;;;;;;;88.78;47.28;;;;;;;;;;5066189;28;20063;-83
2021/12/12 01:23:02;;;;;;;90.13;46.55;;;;;;;;;;5061300;28;20060;-83
2021/12/12 01:25:32;;;;;;;91.60;46.60;;;;;;;;;;5052490;28;20047;-83
2021/12/12 01:27:59;;;;;;;93.00;48.15;;;;;;;;;;5036843;28;20048;-83
2021/12/12 01:30:26;;;;;;;90.07;46.50;;;;;;;;;;5068574;28;20044;-83
2021/12/12 01:32:53;;;;;;;86.00;48.50;;;;;;;;;;5051582;28;20055;-83
2021/12/12 01:35:21;;;;;;;89.35;46.80;;;;;;;;;;5050494;28;20205;-83
2021/12/12 01:40:33;;;;;;;91.88;45.72;;;;;;;;;;5054763;28;20044;-83
2021/12/12 01:43:04;;;;;;;94.72;47.53;;;;;;;;;;5070608;28;20040;-83
2021/12/12 01:45:32;;;;;;;93.95;46.63;;;;;;;;;;5071496;28;20048;-83
2021/12/12 01:48:05;;;;;;;86.43;42.40;;;;;;;;;;5069919;28;20043;-83
2021/12/12 01:50:35;;;;;;;84.65;44.22;;;;;;;;;;5048991;28;20120;-83
2021/12/12 01:53:05;;;;;;;84.30;44.13;;;;;;;;;;5047617;28;20044;-83
2021/12/12 01:55:36;;;;;;;82.40;42.65;;;;;;;;;;5024432;28;20033;-83
2021/12/12 01:58:06;;;;;;;82.90;43.50;;;;;;;;;;5050258;28;20495;-83
2021/12/12 02:00:34;;;;;;;79.07;41.75;;;;;;;;;;5069884;28;20048;-84
2021/12/12 02:03:00;;;;;;;84.72;43.20;;;;;;;;;;5064119;28;20490;-84
2021/12/12 02:05:30;;;;;;;87.13;43.90;;;;;;;;;;5053923;28;20044;-83
2021/12/12 02:07:58;;;;;;;80.68;43.13;;;;;;;;;;5070187;28;20048;-83
2021/12/12 02:10:27;;;;;;;77.03;42.10;;;;;;;;;;5046692;28;20463;-83
2021/12/12 02:12:54;;;;;;;77.80;41.60;;;;;;;;;;5035153;28;20095;-83
2021/12/12 02:15:21;;;;;;;74.75;40.83;;;;;;;;;;5045155;28;20067;-84
2021/12/12 02:17:49;;;;;;;81.25;42.75;;;;;;;;;;5032423;28;20045;-84
2021/12/12 02:20:33;;;;;;;83.70;43.10;;;;;;;;;;5013278;28;20073;-85
2021/12/12 02:36:39;;;;;;;77.28;41.15;;;;;;;;;;5033805;28;20391;-84
2021/12/12 02:39:08;;;;;;;76.43;41.63;;;;;;;;;;5043961;28;20055;-84
2021/12/12 02:41:34;;;;;;;79.03;41.47;;;;;;;;;;5034122;28;20353;-84
2021/12/12 02:44:02;;;;;;;76.53;41.58;;;;;;;;;;5050879;28;20052;-84
2021/12/12 02:46:35;;;;;;;68.15;39.53;;;;;;;;;;5032311;28;20059;-83
2021/12/12 02:52:16;;;;;;;68.05;37.80;;;;;;;;;;5033042;28;20048;-84
2021/12/12 02:54:42;;;;;;;64.53;35.47;;;;;;;;;;5048761;28;20051;-84
2021/12/12 02:57:09;;;;;;;71.03;37.38;;;;;;;;;;5020153;28;20040;-84
2021/12/12 02:59:37;;;;;;;65.30;35.40;;;;;;;;;;5037926;28;20052;-84
2021/12/12 03:02:11;;;;;;;69.57;35.42;;;;;;;;;;5025644;28;20044;-84
2021/12/12 03:04:51;;;;;;;61.22;33.47;;;;;;;;;;5032175;28;20719;-84
2021/12/12 03:07:17;;;;;;;58.70;33.78;;;;;;;;;;4998295;28;20036;-84
2021/12/12 03:09:45;;;;;;;75.25;36.25;;;;;;;;;;5052302;28;20402;-84
2021/12/12 03:12:17;;;;;;;58.67;33.13;;;;;;;;;;5027723;28;20045;-84
2021/12/12 03:14:43;;;;;;;61.30;33.53;;;;;;;;;;5046076;28;20506;-84
2021/12/12 03:17:12;;;;;;;59.95;32.95;;;;;;;;;;5029901;28;20775;-84
2021/12/12 03:19:41;;;;;;;60.20;32.50;;;;;;;;;;5051974;28;20396;-84
2021/12/12 03:22:09;;;;;;;55.97;31.75;;;;;;;;;;5050435;28;20089;-83
2021/12/12 03:24:35;;;;;;;61.30;32.75;;;;;;;;;;5054806;28;20371;-84
2021/12/12 03:27:05;;;;;;;51.22;30.52;;;;;;;;;;5019395;28;20040;-84
2021/12/12 03:29:32;;;;;;;60.28;31.67;;;;;;;;;;5032686;28;20051;-84
2021/12/12 03:32:01;;;;;;;62.13;32.38;;;;;;;;;;5051329;28;20090;-84
2021/12/12 03:34:33;;;;;;;59.88;31.92;;;;;;;;;;5034042;28;20132;-84
2021/12/12 03:37:06;;;;;;;58.85;31.13;;;;;;;;;;5063612;28;20051;-84
2021/12/12 03:39:34;;;;;;;59.05;30.52;;;;;;;;;;5049811;28;20098;-84
2021/12/12 03:42:01;;;;;;;58.40;30.73;;;;;;;;;;5037433;28;20052;-84
2021/12/12 03:44:33;;;;;;;59.63;29.60;;;;;;;;;;5069188;28;20047;-84
2021/12/12 03:47:00;;;;;;;;;;;;;;;;;;5051399;28;20094;-83
2021/12/12 03:49:27;;;;;;;53.65;29.15;;;;;;;;;;5047385;28;19927;-83
2021/12/12 03:51:54;;;;;;;44.00;27.30;;;;;;;;;;5051033;28;20056;-83
2021/12/12 03:54:20;;;;;;;51.65;29.65;;;;;;;;;;5047514;28;20048;-84
2021/12/12 03:56:47;;;;;;;48.10;28.55;;;;;;;;;;5053908;28;20040;-83
2021/12/12 03:59:14;;;;;;;56.72;28.85;;;;;;;;;;5069574;28;20059;-83
2021/12/12 04:01:43;;;;;;;51.95;28.92;;;;;;;;;;5038541;28;20040;-84
2021/12/12 04:04:13;;;;;;;49.47;28.45;;;;;;;;;;5031770;28;20489;-83
2021/12/12 04:06:39;;;;;;;51.75;29.05;;;;;;;;;;5039589;28;20040;-83
2021/12/12 04:09:07;;;;;;;57.63;29.70;;;;;;;;;;5050537;28;20048;-83
2021/12/12 04:11:36;;;;;;;47.65;27.88;;;;;;;;;;5054010;28;20045;-84
2021/12/12 04:14:03;;;;;;;50.63;27.77;;;;;;;;;;5006452;28;20136;-83
2021/12/12 04:16:31;;;;;;;49.63;27.43;;;;;;;;;;5018939;28;20466;-83
2021/12/12 04:18:59;;;;;;;55.80;28.02;;;;;;;;;;5019295;28;20044;-83
2021/12/12 04:21:26;;;;;;;52.60;28.50;;;;;;;;;;5014247;28;20044;-83
2021/12/12 04:23:53;;;;;;;48.60;26.10;;;;;;;;;;5032984;28;20076;-83
2021/12/12 04:26:21;;;;;;;57.05;26.33;;;;;;;;;;5009104;28;20045;-84
2021/12/12 04:28:57;;;;;;;42.83;25.77;;;;;;;;;;5017790;28;20509;-84
2021/12/12 04:31:24;;;;;;;54.95;27.05;;;;;;;;;;5012849;28;20049;-84
2021/12/12 04:33:53;;;;;;;41.72;26.30;;;;;;;;;;5033424;28;20039;-84
2021/12/12 04:36:30;;;;;;;47.30;26.42;;;;;;;;;;5026131;28;20573;-83
2021/12/12 04:39:11;;;;;;;41.95;26.75;;;;;;;;;;5046620;28;20067;-84
2021/12/12 04:41:39;;;;;;;47.75;26.15;;;;;;;;;;5009651;28;20041;-83
2021/12/12 04:44:06;;;;;;;40.40;25.65;;;;;;;;;;4995614;28;20040;-84
2021/12/12 04:49:59;;;;;;;39.38;25.02;;;;;;;;;;5035531;28;20047;-83
2021/12/12 04:52:41;;;;;;;36.20;24.42;;;;;;;;;;5002387;28;20060;-84
2021/12/12 04:55:28;;;;;;;36.47;25.23;;;;;;;;;;5032799;28;20041;-84
2021/12/12 04:58:13;;;;;;;34.05;23.52;;;;;;;;;;5019902;28;20041;-84
2021/12/12 05:00:55;;;;;;;43.28;24.98;;;;;;;;;;5037599;28;20090;-84
2021/12/12 05:03:25;;;;;;;38.90;24.52;;;;;;;;;;5016493;28;20087;-84
2021/12/12 05:05:57;;;;;;;35.08;22.50;;;;;;;;;;5038534;28;20384;-83
2021/12/12 05:08:34;;;;;;;33.47;22.67;;;;;;;;;;5030736;28;20182;-84
2021/12/12 05:11:09;;;;;;;33.42;21.95;;;;;;;;;;5046942;28;20068;-84
2021/12/12 05:13:42;;;;;;;32.80;21.48;;;;;;;;;;5006075;28;20453;-85
2021/12/12 05:16:16;;;;;;;33.42;20.90;;;;;;;;;;5035169;28;20051;-85
2021/12/12 05:18:48;;;;;;;34.65;22.02;;;;;;;;;;5049180;28;20135;-85
2021/12/12 05:21:16;;;;;;;36.88;21.95;;;;;;;;;;5044916;28;20773;-85
2021/12/12 05:23:44;;;;;;;32.05;20.67;;;;;;;;;;5034054;28;20492;-84
2021/12/12 05:26:20;;;;;;;32.83;20.88;;;;;;;;;;5050212;28;20056;-84
2021/12/12 05:28:54;;;;;;;30.17;20.17;;;;;;;;;;5054079;28;20055;-84
2021/12/12 05:31:21;;;;;;;33.53;20.90;;;;;;;;;;5048627;28;20041;-84
2021/12/12 05:33:50;;;;;;;29.65;20.35;;;;;;;;;;5037519;28;20769;-83
2021/12/12 05:36:17;;;;;;;27.85;19.63;;;;;;;;;;5063199;28;20048;-84
2021/12/12 05:38:44;;;;;;;30.25;19.67;;;;;;;;;;5052987;28;20041;-84
2021/12/12 05:41:11;;;;;;;29.33;20.88;;;;;;;;;;5047322;28;20048;-84
2021/12/12 05:43:37;;;;;;;26.00;19.00;;;;;;;;;;5064638;28;20041;-84
2021/12/12 05:46:05;;;;;;;21.48;16.40;;;;;;;;;;5032308;28;20076;-83
2021/12/12 05:48:31;;;;;;;28.08;19.75;;;;;;;;;;5035027;28;20056;-84
2021/12/12 05:50:58;;;;;;;26.63;18.83;;;;;;;;;;5032725;28;20144;-84
2021/12/12 05:53:25;;;;;;;25.65;17.45;;;;;;;;;;5029708;28;20044;-84
2021/12/12 05:55:51;;;;;;;25.10;18.48;;;;;;;;;;5054145;28;20045;-84
2021/12/12 05:58:19;;;;;;;23.92;17.45;;;;;;;;;;5051117;28;20126;-84
2021/12/12 06:01:04;;;;;;;25.08;18.15;;;;;;;;;;5051008;28;20051;-84
2021/12/12 06:03:33;;;;;;;27.08;18.73;;;;;;;;;;5053900;28;20472;-84
2021/12/12 06:06:00;;;;;;;28.52;18.83;;;;;;;;;;5051832;28;20052;-84
2021/12/12 06:08:43;;;;;;;28.15;17.63;;;;;;;;;;4983361;28;20041;-85
2021/12/12 06:11:09;;;;;;;24.83;18.43;;;;;;;;;;4957728;28;20057;-84
2021/12/12 06:13:39;;;;;;;24.60;17.73;;;;;;;;;;4961440;28;20308;-84
2021/12/12 06:16:06;;;;;;;22.73;16.08;;;;;;;;;;4989080;28;20061;-84
2021/12/12 06:18:33;;;;;;;25.48;17.33;;;;;;;;;;4977592;28;20446;-84
2021/12/12 06:20:59;;;;;;;22.15;16.20;;;;;;;;;;4977070;28;20069;-83
2021/12/12 06:23:27;;;;;;;22.92;16.85;;;;;;;;;;4971577;28;20539;-84
2021/12/12 06:25:54;;;;;;;25.73;16.55;;;;;;;;;;4992203;28;20136;-84
2021/12/12 06:28:31;;;;;;;24.42;17.42;;;;;;;;;;4987702;28;20046;-85
2021/12/12 06:30:58;;;;;;;23.52;15.50;;;;;;;;;;4977328;28;20222;-84
2021/12/12 06:33:25;;;;;;;22.27;15.68;;;;;;;;;;4972325;28;20132;-84
2021/12/12 06:35:52;;;;;;;22.60;15.77;;;;;;;;;;4981609;28;20042;-84
2021/12/12 06:38:20;;;;;;;22.88;15.70;;;;;;;;;;4990075;28;20077;-83
2021/12/12 06:40:55;;;;;;;25.67;17.05;;;;;;;;;;4978758;28;20101;-84
2021/12/12 06:43:22;;;;;;;21.70;15.88;;;;;;;;;;4973662;28;20188;-83
2021/12/12 06:45:48;;;;;;;23.75;16.42;;;;;;;;;;5005312;28;20055;-84
2021/12/12 06:48:15;;;;;;;22.45;16.75;;;;;;;;;;5018459;28;21795;-84
2021/12/12 06:50:44;;;;;;;23.88;16.67;;;;;;;;;;5067081;28;20153;-83
2021/12/12 06:53:12;;;;;;;26.23;16.95;;;;;;;;;;5046806;28;20043;-84
2021/12/12 06:55:43;;;;;;;22.10;15.88;;;;;;;;;;5021533;28;20048;-84
2021/12/12 06:58:12;;;;;;;23.75;16.48;;;;;;;;;;5050774;28;20046;-84
2021/12/12 07:00:38;;;;;;;22.00;15.70;;;;;;;;;;5021358;28;20051;-83
2021/12/12 07:03:05;;;;;;;21.92;15.85;;;;;;;;;;5014168;28;20434;-84
2021/12/12 07:05:32;;;;;;;19.55;14.60;;;;;;;;;;5040426;28;20101;-83
2021/12/12 07:07:59;;;;;;;21.05;16.08;;;;;;;;;;5074232;28;20044;-83
2021/12/12 07:10:26;;;;;;;22.98;14.73;;;;;;;;;;5037085;28;20102;-84
2021/12/12 07:12:56;;;;;;;22.25;15.45;;;;;;;;;;5056235;28;20063;-84
2021/12/12 07:15:28;;;;;;;19.98;14.13;;;;;;;;;;5015518;28;23025;-85
2021/12/12 07:17:55;;;;;;;21.77;14.32;;;;;;;;;;5034573;28;20036;-84
2021/12/12 07:20:22;;;;;;;21.33;14.50;;;;;;;;;;4997272;28;20044;-84
2021/12/12 07:22:49;;;;;;;19.83;14.57;;;;;;;;;;5033207;28;20052;-84
2021/12/12 07:25:19;;;;;;;21.27;15.15;;;;;;;;;;5048716;28;20037;-83
2021/12/12 07:27:46;;;;;;;19.13;14.60;;;;;;;;;;5018085;28;20040;-85
2021/12/12 07:30:13;;;;;;;18.55;14.65;;;;;;;;;;5012423;28;20060;-85
2021/12/12 07:32:41;;;;;;;21.43;14.87;;;;;;;;;;5029370;28;20044;-85
2021/12/12 07:35:09;;;;;;;19.77;13.90;;;;;;;;;;5013150;28;20036;-85
2021/12/12 07:37:36;;;;;;;20.08;14.30;;;;;;;;;;5050240;28;20048;-84
2021/12/12 07:40:04;;;;;;;22.30;15.90;;;;;;;;;;5014328;28;20415;-85
2021/12/12 07:42:31;;;;;;;22.38;15.20;;;;;;;;;;5017473;28;20056;-85
2021/12/12 07:44:59;;;;;;;21.65;15.50;;;;;;;;;;5048058;28;20037;-84
2021/12/12 07:47:26;;;;;;;23.30;15.18;;;;;;;;;;5028637;28;20060;-85
2021/12/12 07:50:08;;;;;;;22.67;15.57;;;;;;;;;;4933822;28;20425;-85
2021/12/12 07:52:36;;;;;;;23.93;16.23;;;;;;;;;;4951092;28;20034;-85
2021/12/12 07:55:05;;;;;;;21.80;15.95;;;;;;;;;;4934994;28;21921;-85
2021/12/12 07:57:32;;;;;;;24.65;17.08;;;;;;;;;;4908316;28;20042;-85
2021/12/12 07:59:59;;;;;;;24.08;17.02;;;;;;;;;;4934631;28;20125;-84
2021/12/12 08:02:27;;;;;;;25.25;17.08;;;;;;;;;;4948890;28;20045;-84
2021/12/12 08:04:55;;;;;;;25.13;16.70;;;;;;;;;;4948345;28;20054;-84
2021/12/12 08:07:22;;;;;;;28.10;17.73;;;;;;;;;;4929925;28;20621;-84
2021/12/12 08:09:50;;;;;;;23.60;16.65;;;;;;;;;;4932692;28;20047;-84
2021/12/12 08:12:18;;;;;;;24.13;16.38;;;;;;;;;;4946663;28;20408;-84
2021/12/12 08:14:44;;;;;;;22.27;16.30;;;;;;;;;;4940472;28;20050;-84
2021/12/12 08:17:12;;;;;;;22.27;15.43;;;;;;;;;;4936560;28;20042;-84
2021/12/12 08:19:38;;;;;;;21.65;16.45;;;;;;;;;;4945160;28;20038;-84
2021/12/12 08:22:07;;;;;;;25.73;15.82;;;;;;;;;;4961735;28;20062;-84
2021/12/12 08:24:35;;;;;;;25.98;16.95;;;;;;;;;;4957341;28;20058;-84
2021/12/12 08:27:04;;;;;;;;;;;;;;;;;;4981197;28;20406;-84
2021/12/12 08:29:30;;;;;;;20.48;15.05;;;;;;;;;;5037995;28;19924;-84
2021/12/12 08:31:58;;;;;;;20.83;15.70;;;;;;;;;;5021002;28;20372;-83
2021/12/12 08:34:24;;;;;;;22.05;16.27;;;;;;;;;;5030998;28;20131;-83
2021/12/12 08:36:52;;;;;;;22.42;17.02;;;;;;;;;;5017137;28;20040;-83
2021/12/12 08:39:19;;;;;;;24.45;16.25;;;;;;;;;;5030465;28;20044;-83
2021/12/12 08:41:46;;;;;;;24.65;16.58;;;;;;;;;;5018028;28;20109;-84
2021/12/12 08:44:13;;;;;;;24.70;17.38;;;;;;;;;;5045866;28;20056;-84
2021/12/12 08:46:40;;;;;;;21.85;16.17;;;;;;;;;;5033947;28;20048;-84
2021/12/12 08:49:08;;;;;;;24.08;16.77;;;;;;;;;;5026489;28;20049;-84
2021/12/12 08:51:36;;;;;;;25.58;18.35;;;;;;;;;;5034847;28;20041;-83
2021/12/12 08:54:14;;;;;;;25.70;17.88;;;;;;;;;;5032108;28;20036;-85
2021/12/12 08:56:48;;;;;;;29.13;19.17;;;;;;;;;;5035990;28;20045;-84
2021/12/12 08:59:26;;;;;;;28.65;18.98;;;;;;;;;;5029859;28;20139;-83
2021/12/12 09:01:55;;;;;;;26.83;17.05;;;;;;;;;;5036120;28;20108;-84
2021/12/12 09:04:23;;;;;;;27.83;19.20;;;;;;;;;;5033919;28;22862;-84
2021/12/12 09:07:02;;;;;;;26.50;18.10;;;;;;;;;;5001726;28;20112;-84
2021/12/12 09:09:30;;;;;;;31.83;19.00;;;;;;;;;;5037939;28;20143;-84
2021/12/12 09:11:57;;;;;;;28.42;18.92;;;;;;;;;;5033617;28;20055;-84
2021/12/12 09:14:44;;;;;;;30.98;19.92;;;;;;;;;;5044447;28;20056;-84
2021/12/12 09:17:13;;;;;;;27.80;18.80;;;;;;;;;;5023533;28;20131;-84
2021/12/12 09:19:58;;;;;;;28.15;19.23;;;;;;;;;;5033050;28;20040;-83
2021/12/12 09:22:28;;;;;;;26.58;18.10;;;;;;;;;;5049196;28;20857;-84
2021/12/12 09:25:04;;;;;;;30.85;19.23;;;;;;;;;;5053879;28;20052;-84
2021/12/12 09:27:53;;;;;;;31.00;18.98;;;;;;;;;;5018391;28;20098;-84
2021/12/12 09:30:23;;;;;;;29.70;19.15;;;;;;;;;;5017533;28;20076;-84
2021/12/12 09:32:53;;;;;;;32.38;19.65;;;;;;;;;;5012824;28;20033;-84
2021/12/12 09:35:21;;;;;;;33.80;19.40;;;;;;;;;;5033101;28;20064;-84
2021/12/12 09:37:48;;;;;;;37.17;20.83;;;;;;;;;;5053274;28;20040;-84
2021/12/12 09:40:33;;;;;;;36.72;19.67;;;;;;;;;;5046371;28;20048;-85
2021/12/12 09:43:13;;;;;;;38.25;21.70;;;;;;;;;;5037866;28;20045;-85
2021/12/12 09:45:42;;;;;;;39.45;21.95;;;;;;;;;;5033848;28;20738;-85
2021/12/12 09:51:14;;;;;;;39.80;21.45;;;;;;;;;;5016087;28;20045;-84
2021/12/12 09:51:20;;;;;;;42.05;22.75;;;;;;;;;;5043451;28;20145;-84
2021/12/12 09:53:47;;;;;;;37.42;21.60;;;;;;;;;;5050684;28;20390;-84
2021/12/12 09:56:26;;;;;;;40.03;21.63;;;;;;;;;;5030947;28;20071;-84
2021/12/12 09:59:11;;;;;;;41.72;22.45;;;;;;;;;;5051802;28;20071;-84
2021/12/12 10:01:41;;;;;;;42.92;23.17;;;;;;;;;;5047210;28;21332;-84
2021/12/12 10:04:27;;;;;;;47.60;24.23;;;;;;;;;;5025737;28;20480;-84
2021/12/12 10:07:12;;;;;;;48.92;24.58;;;;;;;;;;5048098;28;20041;-84
2021/12/12 10:10:00;;;;;;;45.50;23.48;;;;;;;;;;5032651;28;20040;-84
2021/12/12 10:12:31;;;;;;;46.63;24.48;;;;;;;;;;5018995;28;20056;-84
2021/12/12 10:15:09;;;;;;;48.13;24.50;;;;;;;;;;5029247;28;20045;-83
2021/12/12 10:17:42;;;;;;;57.50;26.27;;;;;;;;;;5034224;28;20732;-83
2021/12/12 10:20:28;;;;;;;56.38;25.48;;;;;;;;;;5050387;28;20511;-83
2021/12/12 10:23:12;;;;;;;56.90;25.65;;;;;;;;;;5064472;28;20040;-85
2021/12/12 10:25:48;;;;;;;50.53;25.38;;;;;;;;;;5036328;28;20568;-85
2021/12/12 10:28:26;;;;;;;52.55;24.55;;;;;;;;;;5048613;28;20048;-84
2021/12/12 10:30:57;;;;;;;55.00;24.75;;;;;;;;;;5035574;28;20468;-84
2021/12/12 10:33:26;;;;;;;46.75;25.05;;;;;;;;;;5028151;28;20044;-84
2021/12/12 10:35:53;;;;;;;49.03;24.25;;;;;;;;;;5035628;28;20043;-84
2021/12/12 10:38:21;;;;;;;49.30;22.92;;;;;;;;;;5055185;28;20059;-84
2021/12/12 10:40:48;;;;;;;;;;;;;;;;;;5054519;28;20090;-84
2021/12/12 10:43:15;;;;;;;53.75;24.80;;;;;;;;;;5048072;28;19917;-84
2021/12/12 10:45:44;;;;;;;49.38;23.85;;;;;;;;;;5047645;28;20487;-84
2021/12/12 10:48:14;;;;;;;59.58;27.05;;;;;;;;;;5046440;28;20522;-84
2021/12/12 10:51:05;;;;;;;51.45;24.75;;;;;;;;;;5048253;28;20063;-84
2021/12/12 10:53:40;;;;;;;56.47;26.55;;;;;;;;;;5037886;28;20044;-84
2021/12/12 10:56:26;;;;;;;58.42;29.05;;;;;;;;;;5046967;28;20083;-84
2021/12/12 10:58:54;;;;;;;47.83;24.65;;;;;;;;;;5051741;28;20384;-83
2021/12/12 11:01:35;;;;;;;48.92;24.45;;;;;;;;;;5045290;28;20130;-84
2021/12/12 11:04:21;;;;;;;45.65;23.50;;;;;;;;;;5052957;28;20067;-83
2021/12/12 11:06:53;;;;;;;49.90;22.90;;;;;;;;;;5051304;28;20041;-84
2021/12/12 11:09:38;;;;;;;40.90;21.77;;;;;;;;;;5050691;28;20032;-84
2021/12/12 11:12:10;;;;;;;43.53;21.25;;;;;;;;;;5047769;28;20514;-84
2021/12/12 11:14:42;;;;;;;34.58;20.20;;;;;;;;;;5063919;28;20049;-84
2021/12/12 11:17:19;;;;;;;35.42;20.55;;;;;;;;;;5062188;28;20044;-84
2021/12/12 11:19:48;;;;;;;36.53;19.70;;;;;;;;;;5046422;28;20079;-83
2021/12/12 11:22:31;;;;;;;38.83;20.75;;;;;;;;;;5029461;28;20459;-84
2021/12/12 11:25:23;;;;;;;33.55;18.88;;;;;;;;;;5051898;28;20132;-83
2021/12/12 11:27:55;;;;;;;32.95;18.30;;;;;;;;;;5060625;28;20385;-83
2021/12/12 11:30:29;;;;;;;29.15;17.63;;;;;;;;;;5042810;28;20100;-84
2021/12/12 11:32:56;;;;;;;33.47;19.13;;;;;;;;;;5064505;28;20525;-84
2021/12/12 11:35:24;;;;;;;29.05;17.85;;;;;;;;;;5043666;28;21709;-84
2021/12/12 11:37:57;;;;;;;29.38;17.65;;;;;;;;;;5033323;28;20048;-84
2021/12/12 11:40:24;;;;;;;33.22;17.63;;;;;;;;;;5026642;28;20052;-83
2021/12/12 11:43:17;;;;;;;32.25;18.58;;;;;;;;;;5046351;28;20420;-85
2021/12/12 11:45:45;;;;;;;36.17;19.52;;;;;;;;;;5049121;28;20101;-85
2021/12/12 11:48:13;;;;;;;30.52;18.20;;;;;;;;;;5066443;28;20044;-85
2021/12/12 11:50:43;;;;;;;31.63;18.20;;;;;;;;;;5050635;28;20048;-85
2021/12/12 11:53:23;;;;;;;34.03;18.85;;;;;;;;;;5045953;28;20048;-85
2021/12/12 11:55:51;;;;;;;30.45;18.55;;;;;;;;;;5067965;28;20715;-85
2021/12/12 11:58:37;;;;;;;34.15;18.65;;;;;;;;;;5046497;28;20076;-84
2021/12/12 12:01:31;;;;;;;31.73;17.25;;;;;;;;;;5048845;28;20040;-85
2021/12/12 12:04:04;;;;;;;33.67;19.67;;;;;;;;;;4993307;28;20067;-84
2021/12/12 12:06:36;;;;;;;30.95;17.85;;;;;;;;;;5031313;28;20049;-84
2021/12/12 12:09:13;;;;;;;30.35;18.75;;;;;;;;;;5066002;28;20058;-83
2021/12/12 12:11:49;;;;;;;36.33;22.38;;;;;;;;;;5035654;28;20050;-84
2021/12/12 12:14:34;;;;;;;34.17;19.15;;;;;;;;;;5033430;28;20048;-86
2021/12/12 12:17:06;;;;;;;38.22;19.48;;;;;;;;;;5070597;28;20067;-83
2021/12/12 12:19:51;;;;;;;34.03;18.70;;;;;;;;;;5050046;28;20045;-85
2021/12/12 12:22:40;;;;;;;35.75;20.33;;;;;;;;;;5068401;28;20161;-83
2021/12/12 12:25:16;;;;;;;36.22;19.75;;;;;;;;;;5046007;28;20053;-86
2021/12/12 12:27:56;;;;;;;33.88;19.08;;;;;;;;;;5033229;28;20056;-85
2021/12/12 12:30:41;;;;;;;34.17;18.98;;;;;;;;;;5032597;28;22114;-83
2021/12/12 12:33:14;;;;;;;34.92;18.33;;;;;;;;;;5045165;28;20067;-83
2021/12/12 12:35:59;;;;;;;36.08;18.67;;;;;;;;;;5069010;28;20044;-83
2021/12/12 12:38:46;;;;;;;38.42;18.83;;;;;;;;;;5045953;28;20420;-84
2021/12/12 12:41:50;;;;;;;38.75;18.95;;;;;;;;;;5064712;28;20650;-83
2021/12/12 12:44:35;;;;;;;35.47;18.13;;;;;;;;;;5007907;28;20105;-83
2021/12/12 12:47:20;;;;;;;38.55;19.33;;;;;;;;;;5047811;28;20056;-84
2021/12/12 12:50:07;;;;;;;40.20;20.20;;;;;;;;;;5066475;28;20059;-83
2021/12/12 12:52:37;;;;;;;41.30;20.73;;;;;;;;;;5048936;28;20055;-84
2021/12/12 12:55:22;;;;;;;48.67;21.63;;;;;;;;;;5048382;28;20499;-84
2021/12/12 12:57:50;;;;;;;42.67;21.08;;;;;;;;;;5070012;28;20184;-84
2021/12/12 13:00:21;;;;;;;44.95;21.10;;;;;;;;;;5031249;28;20390;-84
2021/12/12 13:02:53;;;;;;;41.08;20.92;;;;;;;;;;5051106;28;20072;-84
2021/12/12 13:05:39;;;;;;;41.83;21.15;;;;;;;;;;5014176;28;20037;-84
2021/12/12 13:08:25;;;;;;;45.53;22.00;;;;;;;;;;5051005;28;20050;-84
2021/12/12 13:10:51;;;;;;;49.13;22.52;;;;;;;;;;5036078;28;20394;-84
2021/12/12 13:13:31;;;;;;;48.08;22.30;;;;;;;;;;5031887;28;20060;-84
2021/12/12 13:16:03;;;;;;;40.03;20.42;;;;;;;;;;5058273;28;20063;-84
2021/12/12 13:18:45;;;;;;;39.67;19.90;;;;;;;;;;5033059;28;20040;-85
2021/12/12 13:21:30;;;;;;;37.85;19.60;;;;;;;;;;5015995;28;20036;-85
2021/12/12 13:24:30;;;;;;;38.42;19.92;;;;;;;;;;5037608;28;20045;-84
2021/12/12 13:27:13;;;;;;;43.45;21.75;;;;;;;;;;4957140;28;20058;-84
2021/12/12 13:30:04;;;;;;;43.00;22.85;;;;;;;;;;4987542;28;20051;-84
2021/12/12 13:32:50;;;;;;;53.70;23.77;;;;;;;;;;5033051;28;20060;-84
2021/12/12 13:35:39;;;;;;;50.70;25.02;;;;;;;;;;5030209;28;20049;-84
2021/12/12 13:38:30;;;;;;;44.75;20.73;;;;;;;;;;5033679;28;20049;-84
2021/12/12 13:40:58;;;;;;;48.83;25.30;;;;;;;;;;5035530;28;20140;-84
2021/12/12 13:43:24;;;;;;;;;;;;;;;;;;5027333;28;20391;-82
2021/12/12 13:46:15;;;;;;;42.55;20.73;;;;;;;;;;5035147;28;19960;-86
2021/12/12 13:48:49;;;;;;;52.78;22.45;;;;;;;;;;5020914;28;20040;-86
2021/12/12 13:51:38;;;;;;;47.10;24.02;;;;;;;;;;5040559;28;20052;-83
2021/12/12 13:54:13;;;;;;;52.10;25.80;;;;;;;;;;5037112;28;20037;-84
2021/12/12 13:56:53;;;;;;;50.20;25.15;;;;;;;;;;5032874;28;20074;-87
2021/12/12 13:59:31;;;;;;;51.28;25.20;;;;;;;;;;5025502;28;20045;-87
2021/12/12 14:01:59;;;;;;;56.92;28.02;;;;;;;;;;5010452;28;20106;-86
2021/12/12 14:04:25;;;;;;;;;;;;;;;;;;5042941;28;20059;-86
2021/12/12 14:06:53;;;;;;;51.00;24.30;;;;;;;;;;5030160;28;19920;-86
2021/12/12 14:09:25;;;;;;;47.60;23.40;;;;;;;;;;5026337;28;20506;-85
2021/12/12 14:11:55;;;;;;;46.70;22.67;;;;;;;;;;5030477;28;20504;-85
2021/12/12 14:14:24;;;;;;;41.10;21.73;;;;;;;;;;5023542;28;22434;-85
2021/12/12 14:16:53;;;;;;;45.60;21.67;;;;;;;;;;5012982;28;21270;-86
2021/12/12 14:19:38;;;;;;;40.85;20.48;;;;;;;;;;5022364;28;20161;-85
2021/12/12 14:22:06;;;;;;;43.78;22.23;;;;;;;;;;5026330;28;20066;-86
2021/12/12 14:24:33;;;;;;;37.17;20.25;;;;;;;;;;5029383;28;20048;-84
2021/12/12 14:27:06;;;;;;;40.70;21.30;;;;;;;;;;5012681;28;20044;-85
2021/12/12 14:29:34;;;;;;;44.85;20.92;;;;;;;;;;5017386;28;20094;-85
2021/12/12 14:32:04;;;;;;;37.35;21.73;;;;;;;;;;5050201;28;20041;-85
2021/12/12 14:34:35;;;;;;;37.90;19.27;;;;;;;;;;5053160;28;20102;-85
2021/12/12 14:37:15;;;;;;;32.88;17.48;;;;;;;;;;5039355;28;20119;-85
2021/12/12 14:39:42;;;;;;;35.28;18.20;;;;;;;;;;5018948;28;20045;-85
2021/12/12 14:42:13;;;;;;;34.42;19.02;;;;;;;;;;5016024;28;20056;-85
2021/12/12 14:44:41;;;;;;;35.65;19.63;;;;;;;;;;5019898;28;20056;-85
2021/12/12 14:47:07;;;;;;;;;;;;;;;;;;5027098;28;20076;-85
2021/12/12 14:49:43;;;;;;;32.60;17.42;;;;;;;;;;5039674;28;19924;-85
2021/12/12 14:52:14;;;;;;;34.50;17.10;;;;;;;;;;5013391;28;20075;-85
2021/12/12 14:54:41;;;;;;;33.15;16.75;;;;;;;;;;4977162;28;20034;-85
2021/12/12 14:57:14;;;;;;;31.27;17.13;;;;;;;;;;4957672;28;20041;-85
2021/12/12 14:59:47;;;;;;;35.90;17.75;;;;;;;;;;4962343;28;20121;-86
2021/12/12 15:02:13;;;;;;;38.00;19.05;;;;;;;;;;4973491;28;20467;-85
2021/12/12 15:04:54;;;;;;;38.55;18.77;;;;;;;;;;4971118;28;20046;-83
2021/12/12 15:07:21;;;;;;;36.50;19.02;;;;;;;;;;4950193;28;20049;-86
2021/12/12 15:09:48;;;;;;;34.67;17.92;;;;;;;;;;4974016;28;20087;-85
2021/12/12 15:12:15;;;;;;;39.30;19.02;;;;;;;;;;4967491;28;20495;-85
2021/12/12 15:15:10;;;;;;;32.67;18.17;;;;;;;;;;4970857;28;20058;-85
2021/12/12 15:17:37;;;;;;;38.03;19.98;;;;;;;;;;4936952;28;20516;-85
2021/12/12 15:20:09;;;;;;;42.78;20.77;;;;;;;;;;4981061;28;20038;-85
2021/12/12 15:22:48;;;;;;;41.05;19.60;;;;;;;;;;4967693;28;20034;-83
2021/12/12 15:25:16;;;;;;;38.22;21.25;;;;;;;;;;4998696;28;20232;-86
2021/12/12 15:27:43;;;;;;;44.33;21.90;;;;;;;;;;5014810;28;20073;-85
2021/12/12 15:30:11;;;;;;;41.47;20.60;;;;;;;;;;5009585;28;20462;-84
2021/12/12 15:32:42;;;;;;;42.20;21.80;;;;;;;;;;5007800;28;20045;-86
2021/12/12 15:35:12;;;;;;;48.90;24.85;;;;;;;;;;5008160;28;20044;-86
2021/12/12 15:37:44;;;;;;;41.28;21.45;;;;;;;;;;5012982;28;20055;-86
2021/12/12 15:40:22;;;;;;;47.05;21.50;;;;;;;;;;5041898;28;20045;-86
2021/12/12 15:42:53;;;;;;;51.30;24.85;;;;;;;;;;5043626;28;20071;-86
2021/12/12 15:45:28;;;;;;;46.42;23.50;;;;;;;;;;5036616;28;22890;-87
2021/12/12 15:47:58;;;;;;;38.83;21.77;;;;;;;;;;5040467;28;20068;-86
2021/12/12 15:50:29;;;;;;;45.83;23.80;;;;;;;;;;5037384;28;20074;-86
2021/12/12 15:52:57;;;;;;;44.88;25.25;;;;;;;;;;4988400;28;20093;-86
2021/12/12 15:55:31;;;;;;;48.28;25.58;;;;;;;;;;4981999;28;20123;-86